IN-0010 weather

Walong Advanced Landing Ground
Arunachal Pradesh, India

Public forecast

Using degrees Celsius for public forecast. Weather courtesy of forecast.io.

METAR (pilot weather report)

Report is more than 2 hours old.

Closest report is Dibrugarh Airport, 113.2 nm (209.7 km) WSW. Retrieved 2019/09/16 12:30 UTC (3 hours ago):

VEMN 161230Z 20003KT 4000 HZ SCT020 FEW025CB BKN100 28/26 Q1005 NOSIG

TAF (pilot weather forecast)

Forecast is more than 12 hours old.

Closest forecast is Along Airport, 117.4 nm (217.5 km) W. Retrieved 2019/09/10 06:30 UTC (6 days ago):

TAF VEAN 100330Z 1006/1018 09008KT 6000 SCT020 SCT025 BKN090 TEMPO 1014/1018 3000 TSRA SCT025 FEW030CB BKN090